Airfield :
LOGIN :

Register | Disclaimer

   EN    FR    IT 

 










Legend :    VFR   Marginal VFR   IFR   Intensive IFR   Very Intensive IFR
Visi :
Ceiling :
>= 8 km
>= 3000ft
5 to 8 km
1000 to 3000 ft
1500m to 5 km
500 to 1000 ft
800 to 1500m
200 to 500 ft
< 800m
< 200 ft
Symbols :   Thunderstorms  Fog  Heavy snow  Heavy precipitations  Wind > 20 kt
SIGMETs :     Misc.  Thunderstorms  Icing  Turbulence  Mountain Waves  Volcanic Ashes






- Airport Elevation : 377 ft


UUBW - Ramenskoye

CURRENT METAR :
  • 032030Z 28004MPS CAVOK 08/M01 Q1004 R30/010060 NOSIG

EXPIRED METARs :
  • 032000Z 21003MPS CAVOK 09/M04 Q1004 R30/010060 NOSIG
  • 031930Z 21004MPS CAVOK 09/M04 Q1003 R30/010060 NOSIG
  • 031900Z 21003MPS CAVOK 09/M04 Q1003 R30/010060 NOSIG
  • 031830Z 18003MPS CAVOK 08/M04 Q1003 R30/010060 NOSIG
  • 031800Z 19003MPS CAVOK 08/M04 Q1003 R30/010060 NOSIG

TAF TAF UUBW
Valid from the 03 at 21:00 until the 04 at 21:00 UTC


031957Z 0321/0421 21003G08MPS 9999 BKN016 TX08/0412Z TN02/0403Z
TEMPO 0321/0404 23008G15MPS -SHRA SCT016CB
BECMG 0404/0406 27008G13MPS
BECMG 0417/0419 27003MPS



MET'MAP, your aeronautical weather chart ! - Copyright ORBIFLY December 2007 - Disclaimer

ORBIFLY MET'MAP TEAM :

Programming & Development : Alexandra Zaïnal
Concept & original design : Baudouin d'Aumeries
Assistance for programming : Marc-Olivier Méhu
Technical & hardware support : Manuel Goepfert

Contact : metmap@orbifly.com




SOURCES & CREDITS :

   NOAA